sensor_id;sensor_type;location;lat;lon;timestamp;pressure;altitude;pressure_sealevel;temperature
27715;BMP280;16051;53.024;8.630;2022-12-04T00:01:58;102095.34;;;-0.13
27715;BMP280;16051;53.024;8.630;2022-12-04T00:06:04;102103.13;;;-0.12
27715;BMP280;16051;53.024;8.630;2022-12-04T00:10:42;102094.88;;;-0.19
27715;BMP280;16051;53.024;8.630;2022-12-04T00:14:44;102090.22;;;-0.18
27715;BMP280;16051;53.024;8.630;2022-12-04T00:18:46;102087.19;;;-0.13
27715;BMP280;16051;53.024;8.630;2022-12-04T00:22:49;102088.44;;;-0.07
27715;BMP280;16051;53.024;8.630;2022-12-04T00:26:52;102085.31;;;-0.09
27715;BMP280;16051;53.024;8.630;2022-12-04T00:30:54;102087.97;;;-0.13
27715;BMP280;16051;53.024;8.630;2022-12-04T00:34:57;102081.75;;;-0.13
27715;BMP280;16051;53.024;8.630;2022-12-04T00:38:59;102081.63;;;-0.20
27715;BMP280;16051;53.024;8.630;2022-12-04T00:43:04;102088.38;;;-0.11
27715;BMP280;16051;53.024;8.630;2022-12-04T00:47:06;102078.69;;;-0.12
27715;BMP280;16051;53.024;8.630;2022-12-04T00:51:12;102066.81;;;-0.26
27715;BMP280;16051;53.024;8.630;2022-12-04T00:55:14;102079.38;;;-0.18
27715;BMP280;16051;53.024;8.630;2022-12-04T00:59:17;102077.25;;;-0.02
27715;BMP280;16051;53.024;8.630;2022-12-04T01:03:20;102083.00;;;-0.07
27715;BMP280;16051;53.024;8.630;2022-12-04T01:07:22;102092.00;;;-0.03
27715;BMP280;16051;53.024;8.630;2022-12-04T01:11:26;102078.16;;;0.06
27715;BMP280;16051;53.024;8.630;2022-12-04T01:15:29;102087.72;;;-0.04
27715;BMP280;16051;53.024;8.630;2022-12-04T01:19:32;102081.84;;;-0.06
27715;BMP280;16051;53.024;8.630;2022-12-04T01:23:34;102073.09;;;-0.22
27715;BMP280;16051;53.024;8.630;2022-12-04T01:27:36;102076.66;;;-0.18
27715;BMP280;16051;53.024;8.630;2022-12-04T01:31:39;102076.94;;;-0.23
27715;BMP280;16051;53.024;8.630;2022-12-04T01:35:41;102071.78;;;-0.06
27715;BMP280;16051;53.024;8.630;2022-12-04T01:39:59;102082.28;;;-0.04
27715;BMP280;16051;53.024;8.630;2022-12-04T01:44:11;102075.75;;;0.00
27715;BMP280;16051;53.024;8.630;2022-12-04T01:48:23;102064.09;;;0.00
27715;BMP280;16051;53.024;8.630;2022-12-04T01:52:27;102062.09;;;-0.03
27715;BMP280;16051;53.024;8.630;2022-12-04T01:56:35;102047.03;;;-0.01
27715;BMP280;16051;53.024;8.630;2022-12-04T02:00:39;102050.53;;;0.00
27715;BMP280;16051;53.024;8.630;2022-12-04T02:04:43;102049.84;;;0.07
27715;BMP280;16051;53.024;8.630;2022-12-04T02:08:45;102052.50;;;0.03
27715;BMP280;16051;53.024;8.630;2022-12-04T02:12:58;102054.44;;;0.03
27715;BMP280;16051;53.024;8.630;2022-12-04T02:17:15;102048.84;;;-0.08
27715;BMP280;16051;53.024;8.630;2022-12-04T02:21:29;102053.28;;;0.04
27715;BMP280;16051;53.024;8.630;2022-12-04T02:25:42;102048.34;;;0.13
27715;BMP280;16051;53.024;8.630;2022-12-04T02:29:56;102048.25;;;0.06
27715;BMP280;16051;53.024;8.630;2022-12-04T02:34:24;102053.34;;;0.07
27715;BMP280;16051;53.024;8.630;2022-12-04T02:38:34;102057.59;;;0.08
27715;BMP280;16051;53.024;8.630;2022-12-04T02:42:41;102057.94;;;0.03
27715;BMP280;16051;53.024;8.630;2022-12-04T02:46:50;102059.28;;;0.16
27715;BMP280;16051;53.024;8.630;2022-12-04T02:50:58;102064.91;;;0.04
27715;BMP280;16051;53.024;8.630;2022-12-04T02:55:08;102057.75;;;0.19
27715;BMP280;16051;53.024;8.630;2022-12-04T02:59:18;102062.88;;;0.24
27715;BMP280;16051;53.024;8.630;2022-12-04T03:03:26;102057.16;;;0.32
27715;BMP280;16051;53.024;8.630;2022-12-04T03:07:35;102047.72;;;0.23
27715;BMP280;16051;53.024;8.630;2022-12-04T03:11:41;102055.53;;;0.28
27715;BMP280;16051;53.024;8.630;2022-12-04T03:15:48;102051.56;;;0.22
27715;BMP280;16051;53.024;8.630;2022-12-04T03:20:01;102048.22;;;0.32
27715;BMP280;16051;53.024;8.630;2022-12-04T03:24:14;102058.34;;;0.35
27715;BMP280;16051;53.024;8.630;2022-12-04T03:28:28;102043.09;;;0.27
27715;BMP280;16051;53.024;8.630;2022-12-04T03:32:35;102036.94;;;0.30
27715;BMP280;16051;53.024;8.630;2022-12-04T03:36:51;102038.09;;;0.29
27715;BMP280;16051;53.024;8.630;2022-12-04T03:41:01;102032.53;;;0.22
27715;BMP280;16051;53.024;8.630;2022-12-04T03:45:38;102030.31;;;0.27
27715;BMP280;16051;53.024;8.630;2022-12-04T03:49:49;102038.13;;;0.32
27715;BMP280;16051;53.024;8.630;2022-12-04T03:53:57;102033.81;;;0.28
27715;BMP280;16051;53.024;8.630;2022-12-04T03:58:10;102031.88;;;0.28
27715;BMP280;16051;53.024;8.630;2022-12-04T04:02:17;102034.16;;;0.26
27715;BMP280;16051;53.024;8.630;2022-12-04T04:06:25;102024.78;;;0.20
27715;BMP280;16051;53.024;8.630;2022-12-04T04:10:45;102027.28;;;0.32
27715;BMP280;16051;53.024;8.630;2022-12-04T04:14:52;102026.06;;;0.30
27715;BMP280;16051;53.024;8.630;2022-12-04T04:19:15;102033.81;;;0.28
27715;BMP280;16051;53.024;8.630;2022-12-04T04:23:42;102035.44;;;0.32
27715;BMP280;16051;53.024;8.630;2022-12-04T04:28:03;102025.66;;;0.28
27715;BMP280;16051;53.024;8.630;2022-12-04T04:32:12;102032.75;;;0.36
27715;BMP280;16051;53.024;8.630;2022-12-04T04:36:23;102030.34;;;0.31
27715;BMP280;16051;53.024;8.630;2022-12-04T04:40:37;102032.63;;;0.25
27715;BMP280;16051;53.024;8.630;2022-12-04T04:44:56;102038.53;;;0.34
27715;BMP280;16051;53.024;8.630;2022-12-04T04:49:04;102035.44;;;0.32
27715;BMP280;16051;53.024;8.630;2022-12-04T04:53:12;102047.75;;;0.26
27715;BMP280;16051;53.024;8.630;2022-12-04T04:57:26;102042.75;;;0.28
27715;BMP280;16051;53.024;8.630;2022-12-04T05:01:30;102041.97;;;0.28
27715;BMP280;16051;53.024;8.630;2022-12-04T05:05:32;102042.69;;;0.25
27715;BMP280;16051;53.024;8.630;2022-12-04T05:09:34;102045.50;;;0.32
27715;BMP280;16051;53.024;8.630;2022-12-04T05:13:36;102034.28;;;0.37
27715;BMP280;16051;53.024;8.630;2022-12-04T05:17:47;102038.47;;;0.27
27715;BMP280;16051;53.024;8.630;2022-12-04T05:21:49;102042.41;;;0.33
27715;BMP280;16051;53.024;8.630;2022-12-04T05:25:58;102039.03;;;0.43
27715;BMP280;16051;53.024;8.630;2022-12-04T05:30:01;102045.91;;;0.34
27715;BMP280;16051;53.024;8.630;2022-12-04T05:34:04;102051.38;;;0.37
27715;BMP280;16051;53.024;8.630;2022-12-04T05:38:06;102050.28;;;0.42
27715;BMP280;16051;53.024;8.630;2022-12-04T05:42:09;102053.88;;;0.49
27715;BMP280;16051;53.024;8.630;2022-12-04T05:46:31;102051.47;;;0.44
27715;BMP280;16051;53.024;8.630;2022-12-04T05:50:37;102055.03;;;0.48
27715;BMP280;16051;53.024;8.630;2022-12-04T05:54:40;102046.88;;;0.48
27715;BMP280;16051;53.024;8.630;2022-12-04T05:58:51;102058.88;;;0.47
27715;BMP280;16051;53.024;8.630;2022-12-04T06:02:53;102041.91;;;0.54
27715;BMP280;16051;53.024;8.630;2022-12-04T06:06:57;102041.91;;;0.54
27715;BMP280;16051;53.024;8.630;2022-12-04T06:10:59;102043.88;;;0.57
27715;BMP280;16051;53.024;8.630;2022-12-04T06:15:01;102057.44;;;0.54
27715;BMP280;16051;53.024;8.630;2022-12-04T06:19:07;102043.94;;;0.64
27715;BMP280;16051;53.024;8.630;2022-12-04T06:23:16;102035.41;;;0.66
27715;BMP280;16051;53.024;8.630;2022-12-04T06:27:18;102041.28;;;0.68
27715;BMP280;16051;53.024;8.630;2022-12-04T06:31:20;102040.88;;;0.69
27715;BMP280;16051;53.024;8.630;2022-12-04T06:35:22;102047.50;;;0.68
27715;BMP280;16051;53.024;8.630;2022-12-04T06:39:26;102051.44;;;0.74
27715;BMP280;16051;53.024;8.630;2022-12-04T06:43:28;102049.94;;;0.80
27715;BMP280;16051;53.024;8.630;2022-12-04T06:47:46;102046.81;;;0.78
27715;BMP280;16051;53.024;8.630;2022-12-04T06:51:48;102050.81;;;0.88
27715;BMP280;16051;53.024;8.630;2022-12-04T06:56:13;102056.66;;;0.90
27715;BMP280;16051;53.024;8.630;2022-12-04T07:00:18;102054.34;;;0.92
27715;BMP280;16051;53.024;8.630;2022-12-04T07:04:20;102047.88;;;1.04
27715;BMP280;16051;53.024;8.630;2022-12-04T07:08:23;102057.56;;;1.01
27715;BMP280;16051;53.024;8.630;2022-12-04T07:12:26;102063.13;;;1.12
27715;BMP280;16051;53.024;8.630;2022-12-04T07:16:29;102057.25;;;1.10
27715;BMP280;16051;53.024;8.630;2022-12-04T07:20:49;102073.72;;;1.24
27715;BMP280;16051;53.024;8.630;2022-12-04T07:24:52;102068.66;;;1.22
27715;BMP280;16051;53.024;8.630;2022-12-04T07:28:56;102070.09;;;1.13
27715;BMP280;16051;53.024;8.630;2022-12-04T07:33:01;102074.75;;;1.12
27715;BMP280;16051;53.024;8.630;2022-12-04T07:37:03;102076.25;;;1.06
27715;BMP280;16051;53.024;8.630;2022-12-04T07:41:06;102076.63;;;1.01
27715;BMP280;16051;53.024;8.630;2022-12-04T07:45:10;102076.63;;;1.01
27715;BMP280;16051;53.024;8.630;2022-12-04T07:49:13;102070.00;;;1.02
27715;BMP280;16051;53.024;8.630;2022-12-04T07:53:16;102076.19;;;0.99
27715;BMP280;16051;53.024;8.630;2022-12-04T07:57:18;102072.31;;;1.00
27715;BMP280;16051;53.024;8.630;2022-12-04T08:01:30;102066.88;;;1.00
27715;BMP280;16051;53.024;8.630;2022-12-04T08:05:33;102070.03;;;1.06
27715;BMP280;16051;53.024;8.630;2022-12-04T08:09:36;102071.25;;;1.08
27715;BMP280;16051;53.024;8.630;2022-12-04T08:13:43;102072.72;;;1.02
27715;BMP280;16051;53.024;8.630;2022-12-04T08:17:46;102075.44;;;1.02
27715;BMP280;16051;53.024;8.630;2022-12-04T08:21:49;102078.63;;;1.08
27715;BMP280;16051;53.024;8.630;2022-12-04T08:25:51;102091.16;;;1.16
27715;BMP280;16051;53.024;8.630;2022-12-04T08:29:53;102097.69;;;1.08
27715;BMP280;16051;53.024;8.630;2022-12-04T08:33:58;102099.69;;;1.14
27715;BMP280;16051;53.024;8.630;2022-12-04T08:38:01;102097.78;;;1.18
27715;BMP280;16051;53.024;8.630;2022-12-04T08:42:06;102106.41;;;1.27
27715;BMP280;16051;53.024;8.630;2022-12-04T08:46:22;102103.59;;;1.17
27715;BMP280;16051;53.024;8.630;2022-12-04T08:50:26;102105.25;;;1.28
27715;BMP280;16051;53.024;8.630;2022-12-04T08:54:28;102099.81;;;1.28
27715;BMP280;16051;53.024;8.630;2022-12-04T08:58:39;102102.25;;;1.37
27715;BMP280;16051;53.024;8.630;2022-12-04T09:02:48;102097.53;;;1.34
27715;BMP280;16051;53.024;8.630;2022-12-04T09:06:56;102092.94;;;1.41
27715;BMP280;16051;53.024;8.630;2022-12-04T09:11:19;102095.94;;;1.29
27715;BMP280;16051;53.024;8.630;2022-12-04T09:15:22;102093.66;;;1.35
27715;BMP280;16051;53.024;8.630;2022-12-04T09:19:24;102095.22;;;1.36
27715;BMP280;16051;53.024;8.630;2022-12-04T09:23:28;102094.88;;;1.37
27715;BMP280;16051;53.024;8.630;2022-12-04T09:27:34;102087.91;;;1.43
27715;BMP280;16051;53.024;8.630;2022-12-04T09:31:45;102085.50;;;1.38
27715;BMP280;16051;53.024;8.630;2022-12-04T09:35:47;102080.13;;;1.45
27715;BMP280;16051;53.024;8.630;2022-12-04T09:39:52;102080.53;;;1.44
27715;BMP280;16051;53.024;8.630;2022-12-04T09:44:14;102075.91;;;1.48
27715;BMP280;16051;53.024;8.630;2022-12-04T09:48:25;102074.28;;;1.43
27715;BMP280;16051;53.024;8.630;2022-12-04T09:52:45;102068.97;;;1.58
27715;BMP280;16051;53.024;8.630;2022-12-04T09:57:02;102074.03;;;1.59
27715;BMP280;16051;53.024;8.630;2022-12-04T10:01:21;102075.63;;;1.64
27715;BMP280;16051;53.024;8.630;2022-12-04T10:05:42;102072.50;;;1.62
27715;BMP280;16051;53.024;8.630;2022-12-04T10:09:53;102069.41;;;1.67
27715;BMP280;16051;53.024;8.630;2022-12-04T10:14:23;102059.28;;;1.64
27715;BMP280;16051;53.024;8.630;2022-12-04T10:18:43;102062.34;;;1.59
27715;BMP280;16051;53.024;8.630;2022-12-04T10:22:57;102058.13;;;1.68
27715;BMP280;16051;53.024;8.630;2022-12-04T10:27:11;102054.63;;;1.68
27715;BMP280;16051;53.024;8.630;2022-12-04T10:31:29;102052.31;;;1.70
27715;BMP280;16051;53.024;8.630;2022-12-04T10:35:36;102059.38;;;1.78
27715;BMP280;16051;53.024;8.630;2022-12-04T10:39:47;102050.78;;;1.72
27715;BMP280;16051;53.024;8.630;2022-12-04T10:43:51;102050.84;;;1.83
27715;BMP280;16051;53.024;8.630;2022-12-04T10:48:21;102045.00;;;1.81
27715;BMP280;16051;53.024;8.630;2022-12-04T10:52:24;102053.56;;;1.79
27715;BMP280;16051;53.024;8.630;2022-12-04T10:56:26;102044.59;;;1.79
27715;BMP280;16051;53.024;8.630;2022-12-04T11:00:31;102046.16;;;1.80
27715;BMP280;16051;53.024;8.630;2022-12-04T11:04:39;102039.50;;;1.77
27715;BMP280;16051;53.024;8.630;2022-12-04T11:08:49;102038.78;;;1.80
27715;BMP280;16051;53.024;8.630;2022-12-04T11:13:05;102034.88;;;1.81
27715;BMP280;16051;53.024;8.630;2022-12-04T11:17:16;102036.84;;;1.84
27715;BMP280;16051;53.024;8.630;2022-12-04T11:21:26;102027.53;;;1.89
27715;BMP280;16051;53.024;8.630;2022-12-04T11:25:36;102024.84;;;1.99
27715;BMP280;16051;53.024;8.630;2022-12-04T11:29:47;102026.44;;;2.04
27715;BMP280;16051;53.024;8.630;2022-12-04T11:33:54;102021.78;;;2.08
27715;BMP280;16051;53.024;8.630;2022-12-04T11:38:14;102018.66;;;2.03
27715;BMP280;16051;53.024;8.630;2022-12-04T11:42:22;102021.78;;;2.05
27715;BMP280;16051;53.024;8.630;2022-12-04T11:46:30;102026.03;;;1.98
27715;BMP280;16051;53.024;8.630;2022-12-04T11:50:41;102020.91;;;1.86
27715;BMP280;16051;53.024;8.630;2022-12-04T11:54:59;102024.00;;;1.88
27715;BMP280;16051;53.024;8.630;2022-12-04T11:59:26;102013.50;;;1.87
27715;BMP280;16051;53.024;8.630;2022-12-04T12:03:36;102003.78;;;1.89
27715;BMP280;16051;53.024;8.630;2022-12-04T12:07:50;102006.13;;;1.91
27715;BMP280;16051;53.024;8.630;2022-12-04T12:12:05;102004.22;;;1.98
27715;BMP280;16051;53.024;8.630;2022-12-04T12:16:23;101998.41;;;2.07
27715;BMP280;16051;53.024;8.630;2022-12-04T12:20:35;101985.19;;;2.02
27715;BMP280;16051;53.024;8.630;2022-12-04T12:24:58;101990.66;;;2.13
27715;BMP280;16051;53.024;8.630;2022-12-04T12:29:19;101984.81;;;2.14
27715;BMP280;16051;53.024;8.630;2022-12-04T12:33:29;101979.78;;;2.20
27715;BMP280;16051;53.024;8.630;2022-12-04T12:37:41;101976.69;;;2.28
27715;BMP280;16051;53.024;8.630;2022-12-04T12:41:49;101982.16;;;2.32
27715;BMP280;16051;53.024;8.630;2022-12-04T12:46:01;101988.84;;;2.41
27715;BMP280;16051;53.024;8.630;2022-12-04T12:50:20;101981.81;;;2.44
27715;BMP280;16051;53.024;8.630;2022-12-04T12:54:32;101980.69;;;2.48
27715;BMP280;16051;53.024;8.630;2022-12-04T12:58:43;101970.56;;;2.56
27715;BMP280;16051;53.024;8.630;2022-12-04T13:02:56;101963.16;;;2.53
27715;BMP280;16051;53.024;8.630;2022-12-04T13:07:13;101963.91;;;2.54
27715;BMP280;16051;53.024;8.630;2022-12-04T13:11:24;101958.88;;;2.59
27715;BMP280;16051;53.024;8.630;2022-12-04T13:15:37;101959.66;;;2.63
27715;BMP280;16051;53.024;8.630;2022-12-04T13:19:47;101961.25;;;2.75
27715;BMP280;16051;53.024;8.630;2022-12-04T13:28:50;101946.41;;;2.69
27715;BMP280;16051;53.024;8.630;2022-12-04T13:33:35;101944.09;;;2.64
27715;BMP280;16051;53.024;8.630;2022-12-04T13:38:05;101942.13;;;2.68
27715;BMP280;16051;53.024;8.630;2022-12-04T13:42:22;101940.56;;;2.67
27715;BMP280;16051;53.024;8.630;2022-12-04T13:46:30;101946.03;;;2.70
27715;BMP280;16051;53.024;8.630;2022-12-04T13:51:00;101933.56;;;2.69
27715;BMP280;16051;53.024;8.630;2022-12-04T13:55:22;101933.91;;;2.61
27715;BMP280;16051;53.024;8.630;2022-12-04T13:59:37;101944.09;;;2.64
27715;BMP280;16051;53.024;8.630;2022-12-04T14:03:47;101942.09;;;2.64
27715;BMP280;16051;53.024;8.630;2022-12-04T14:08:00;101946.81;;;2.71
27715;BMP280;16051;53.024;8.630;2022-12-04T14:12:09;101939.78;;;2.66
27715;BMP280;16051;53.024;8.630;2022-12-04T14:16:21;101933.94;;;2.68
27715;BMP280;16051;53.024;8.630;2022-12-04T14:20:42;101940.97;;;2.72
27715;BMP280;16051;53.024;8.630;2022-12-04T14:24:45;101929.25;;;2.72
27715;BMP280;16051;53.024;8.630;2022-12-04T14:28:49;101926.16;;;2.70
27715;BMP280;16051;53.024;8.630;2022-12-04T14:32:57;101930.81;;;2.80
27715;BMP280;16051;53.024;8.630;2022-12-04T14:37:00;101917.19;;;2.83
27715;BMP280;16051;53.024;8.630;2022-12-04T14:41:04;101922.25;;;2.78
27715;BMP280;16051;53.024;8.630;2022-12-04T14:45:32;101904.31;;;2.80
27715;BMP280;16051;53.024;8.630;2022-12-04T14:49:50;101918.75;;;2.81
27715;BMP280;16051;53.024;8.630;2022-12-04T14:54:05;101905.09;;;2.70
27715;BMP280;16051;53.024;8.630;2022-12-04T14:58:16;101907.44;;;2.72
27715;BMP280;16051;53.024;8.630;2022-12-04T15:02:38;101912.09;;;2.68
27715;BMP280;16051;53.024;8.630;2022-12-04T15:06:41;101898.09;;;2.73
27715;BMP280;16051;53.024;8.630;2022-12-04T15:10:49;101898.09;;;2.80
27715;BMP280;16051;53.024;8.630;2022-12-04T15:15:17;101909.00;;;2.73
27715;BMP280;16051;53.024;8.630;2022-12-04T15:19:23;101908.22;;;2.79
27715;BMP280;16051;53.024;8.630;2022-12-04T15:23:35;101903.94;;;2.75
27715;BMP280;16051;53.024;8.630;2022-12-04T15:27:38;101914.06;;;2.74
27715;BMP280;16051;53.024;8.630;2022-12-04T15:31:44;101920.69;;;2.73
27715;BMP280;16051;53.024;8.630;2022-12-04T15:35:53;101924.59;;;2.83
27715;BMP280;16051;53.024;8.630;2022-12-04T15:39:58;101916.81;;;2.88
27715;BMP280;16051;53.024;8.630;2022-12-04T15:44:01;101916.03;;;2.88
27715;BMP280;16051;53.024;8.630;2022-12-04T15:48:03;101925.00;;;2.88
27715;BMP280;16051;53.024;8.630;2022-12-04T15:52:15;101921.06;;;2.79
27715;BMP280;16051;53.024;8.630;2022-12-04T15:56:20;101920.69;;;2.87
27715;BMP280;16051;53.024;8.630;2022-12-04T16:00:29;101927.72;;;2.88
27715;BMP280;16051;53.024;8.630;2022-12-04T16:04:32;101919.91;;;2.90
27715;BMP280;16051;53.024;8.630;2022-12-04T16:08:41;101921.47;;;2.95
27715;BMP280;16051;53.024;8.630;2022-12-04T16:12:51;101930.47;;;2.92
27715;BMP280;16051;53.024;8.630;2022-12-04T16:16:57;101928.88;;;2.91
27715;BMP280;16051;53.024;8.630;2022-12-04T16:21:10;101935.91;;;2.92
27715;BMP280;16051;53.024;8.630;2022-12-04T16:25:14;101939.44;;;3.00
27715;BMP280;16051;53.024;8.630;2022-12-04T16:29:37;101940.97;;;3.01
27715;BMP280;16051;53.024;8.630;2022-12-04T16:33:45;101956.56;;;2.89
27715;BMP280;16051;53.024;8.630;2022-12-04T16:37:52;101951.50;;;2.95
27715;BMP280;16051;53.024;8.630;2022-12-04T16:41:56;101955.03;;;3.03
27715;BMP280;16051;53.024;8.630;2022-12-04T16:46:00;101955.81;;;3.03
27715;BMP280;16051;53.024;8.630;2022-12-04T16:50:09;101955.81;;;3.00
27715;BMP280;16051;53.024;8.630;2022-12-04T16:54:12;101956.59;;;3.00
27715;BMP280;16051;53.024;8.630;2022-12-04T16:58:18;101958.53;;;3.07
27715;BMP280;16051;53.024;8.630;2022-12-04T17:02:25;101945.69;;;3.07
27715;BMP280;16051;53.024;8.630;2022-12-04T17:06:27;101950.72;;;3.09
27715;BMP280;16051;53.024;8.630;2022-12-04T17:10:30;101946.84;;;3.06
27715;BMP280;16051;53.024;8.630;2022-12-04T17:14:43;101948.00;;;3.12
27715;BMP280;16051;53.024;8.630;2022-12-04T17:18:45;101952.28;;;3.06
27715;BMP280;16051;53.024;8.630;2022-12-04T17:22:49;101948.78;;;3.16
27715;BMP280;16051;53.024;8.630;2022-12-04T17:26:54;101953.09;;;3.14
27715;BMP280;16051;53.024;8.630;2022-12-04T17:30:57;101954.25;;;3.20
27715;BMP280;16051;53.024;8.630;2022-12-04T17:35:04;101962.44;;;3.09
27715;BMP280;16051;53.024;8.630;2022-12-04T17:39:06;101961.66;;;3.12
27715;BMP280;16051;53.024;8.630;2022-12-04T17:43:11;101967.09;;;3.19
27715;BMP280;16051;53.024;8.630;2022-12-04T17:47:20;101976.09;;;3.16
27715;BMP280;16051;53.024;8.630;2022-12-04T17:51:23;101965.94;;;3.20
27715;BMP280;16051;53.024;8.630;2022-12-04T17:55:41;101964.38;;;3.26
27715;BMP280;16051;53.024;8.630;2022-12-04T17:59:43;101962.06;;;3.25
27715;BMP280;16051;53.024;8.630;2022-12-04T18:03:56;101969.47;;;3.24
27715;BMP280;16051;53.024;8.630;2022-12-04T18:07:59;101964.78;;;3.21
27715;BMP280;16051;53.024;8.630;2022-12-04T18:12:01;101967.09;;;3.30
27715;BMP280;16051;53.024;8.630;2022-12-04T18:16:06;101969.47;;;3.28
27715;BMP280;16051;53.024;8.630;2022-12-04T18:20:11;101965.94;;;3.27
27715;BMP280;16051;53.024;8.630;2022-12-04T18:24:14;101969.03;;;3.36
27715;BMP280;16051;53.024;8.630;2022-12-04T18:28:18;101972.56;;;3.33
27715;BMP280;16051;53.024;8.630;2022-12-04T18:32:20;101969.81;;;3.40
27715;BMP280;16051;53.024;8.630;2022-12-04T18:36:27;101970.59;;;3.41
27715;BMP280;16051;53.024;8.630;2022-12-04T18:40:29;101970.22;;;3.50
27715;BMP280;16051;53.024;8.630;2022-12-04T18:44:32;101959.31;;;3.39
27715;BMP280;16051;53.024;8.630;2022-12-04T18:48:35;101964.38;;;3.33
27715;BMP280;16051;53.024;8.630;2022-12-04T18:52:39;101961.63;;;3.33
27715;BMP280;16051;53.024;8.630;2022-12-04T18:56:48;101957.34;;;3.46
27715;BMP280;16051;53.024;8.630;2022-12-04T19:00:50;101955.00;;;3.38
27715;BMP280;16051;53.024;8.630;2022-12-04T19:04:54;101969.81;;;3.51
27715;BMP280;16051;53.024;8.630;2022-12-04T19:09:02;101963.59;;;3.47
27715;BMP280;16051;53.024;8.630;2022-12-04T19:13:05;101971.00;;;3.46
27715;BMP280;16051;53.024;8.630;2022-12-04T19:17:17;101975.25;;;3.55
27715;BMP280;16051;53.024;8.630;2022-12-04T19:21:19;101974.09;;;3.56
27715;BMP280;16051;53.024;8.630;2022-12-04T19:25:23;101979.56;;;3.48
27715;BMP280;16051;53.024;8.630;2022-12-04T19:29:25;101973.31;;;3.59
27715;BMP280;16051;53.024;8.630;2022-12-04T19:33:33;101958.88;;;3.58
27715;BMP280;16051;53.024;8.630;2022-12-04T19:37:50;101969.03;;;3.58
27715;BMP280;16051;53.024;8.630;2022-12-04T19:41:57;101965.91;;;3.52
27715;BMP280;16051;53.024;8.630;2022-12-04T19:46:02;101969.03;;;3.54
27715;BMP280;16051;53.024;8.630;2022-12-04T19:50:07;101967.44;;;3.67
27715;BMP280;16051;53.024;8.630;2022-12-04T19:54:12;101960.03;;;3.64
27715;BMP280;16051;53.024;8.630;2022-12-04T19:58:16;101971.75;;;3.65
27715;BMP280;16051;53.024;8.630;2022-12-04T20:02:19;101958.47;;;3.63
27715;BMP280;16051;53.024;8.630;2022-12-04T20:06:40;101958.47;;;3.63
27715;BMP280;16051;53.024;8.630;2022-12-04T20:10:42;101947.16;;;3.68
27715;BMP280;16051;53.024;8.630;2022-12-04T20:14:46;101954.53;;;3.78
27715;BMP280;16051;53.024;8.630;2022-12-04T20:18:49;101948.31;;;3.71
27715;BMP280;16051;53.024;8.630;2022-12-04T20:22:53;101944.41;;;3.72
27715;BMP280;16051;53.024;8.630;2022-12-04T20:26:55;101935.44;;;3.71
27715;BMP280;16051;53.024;8.630;2022-12-04T20:30:59;101936.19;;;3.79
27715;BMP280;16051;53.024;8.630;2022-12-04T20:35:04;101933.81;;;3.84
27715;BMP280;16051;53.024;8.630;2022-12-04T20:39:08;101927.19;;;3.82
27715;BMP280;16051;53.024;8.630;2022-12-04T20:43:11;101921.72;;;3.82
27715;BMP280;16051;53.024;8.630;2022-12-04T20:47:22;101914.69;;;3.81
27715;BMP280;16051;53.024;8.630;2022-12-04T20:51:28;101920.94;;;3.81
27715;BMP280;16051;53.024;8.630;2022-12-04T20:55:30;101923.66;;;3.85
27715;BMP280;16051;53.024;8.630;2022-12-04T20:59:32;101915.44;;;3.92
27715;BMP280;16051;53.024;8.630;2022-12-04T21:03:42;101920.88;;;3.95
27715;BMP280;16051;53.024;8.630;2022-12-04T21:07:45;101927.16;;;3.92
27715;BMP280;16051;53.024;8.630;2022-12-04T21:11:50;101924.41;;;3.96
27715;BMP280;16051;53.024;8.630;2022-12-04T21:15:52;101915.03;;;3.97
27715;BMP280;16051;53.024;8.630;2022-12-04T21:20:17;101914.22;;;4.04
27715;BMP280;16051;53.024;8.630;2022-12-04T21:24:21;101917.72;;;4.04
27715;BMP280;16051;53.024;8.630;2022-12-04T21:28:26;101916.16;;;4.03
27715;BMP280;16051;53.024;8.630;2022-12-04T21:32:28;101913.41;;;4.10
27715;BMP280;16051;53.024;8.630;2022-12-04T21:36:37;101914.59;;;4.02
27715;BMP280;16051;53.024;8.630;2022-12-04T21:40:40;101918.88;;;4.10
27715;BMP280;16051;53.024;8.630;2022-12-04T21:44:42;101916.94;;;4.07
27715;BMP280;16051;53.024;8.630;2022-12-04T21:48:44;101919.28;;;4.12
27715;BMP280;16051;53.024;8.630;2022-12-04T21:52:48;101923.91;;;4.19
27715;BMP280;16051;53.024;8.630;2022-12-04T21:57:00;101920.03;;;4.09
27715;BMP280;16051;53.024;8.630;2022-12-04T22:01:08;101924.00;;;4.01
27715;BMP280;16051;53.024;8.630;2022-12-04T22:05:10;101924.75;;;4.12
27715;BMP280;16051;53.024;8.630;2022-12-04T22:09:14;101921.25;;;4.05
27715;BMP280;16051;53.024;8.630;2022-12-04T22:13:16;101928.28;;;4.02
27715;BMP280;16051;53.024;8.630;2022-12-04T22:17:33;101924.75;;;4.12
27715;BMP280;16051;53.024;8.630;2022-12-04T22:21:35;101911.84;;;4.06
27715;BMP280;16051;53.024;8.630;2022-12-04T22:25:39;101914.97;;;4.11
27715;BMP280;16051;53.024;8.630;2022-12-04T22:29:41;101915.75;;;4.12
27715;BMP280;16051;53.024;8.630;2022-12-04T22:37:50;101913.78;;;4.12
27715;BMP280;16051;53.024;8.630;2022-12-04T22:41:54;101913.81;;;4.09
27715;BMP280;16051;53.024;8.630;2022-12-04T22:45:56;101909.47;;;4.15
27715;BMP280;16051;53.024;8.630;2022-12-04T22:49:58;101907.91;;;4.17
27715;BMP280;16051;53.024;8.630;2022-12-04T22:54:00;101902.44;;;4.17
27715;BMP280;16051;53.024;8.630;2022-12-04T22:58:04;101912.19;;;4.18
27715;BMP280;16051;53.024;8.630;2022-12-04T23:02:12;101905.13;;;4.21
27715;BMP280;16051;53.024;8.630;2022-12-04T23:06:17;101902.44;;;4.14
27715;BMP280;16051;53.024;8.630;2022-12-04T23:10:20;101907.06;;;4.27
27715;BMP280;16051;53.024;8.630;2022-12-04T23:14:24;101896.22;;;4.10
27715;BMP280;16051;53.024;8.630;2022-12-04T23:18:27;101894.63;;;4.16
27715;BMP280;16051;53.024;8.630;2022-12-04T23:22:35;101896.56;;;4.19
27715;BMP280;16051;53.024;8.630;2022-12-04T23:26:41;101896.94;;;4.21
27715;BMP280;16051;53.024;8.630;2022-12-04T23:30:46;101905.13;;;4.21
27715;BMP280;16051;53.024;8.630;2022-12-04T23:34:48;101893.84;;;4.15
27715;BMP280;16051;53.024;8.630;2022-12-04T23:38:53;101897.38;;;4.16
27715;BMP280;16051;53.024;8.630;2022-12-04T23:42:55;101906.28;;;4.23
27715;BMP280;16051;53.024;8.630;2022-12-04T23:47:24;101905.16;;;4.17
27715;BMP280;16051;53.024;8.630;2022-12-04T23:51:27;101898.91;;;4.17
27715;BMP280;16051;53.024;8.630;2022-12-04T23:55:29;101904.00;;;4.15
27715;BMP280;16051;53.024;8.630;2022-12-04T23:59:32;101889.91;;;4.16
